createdAt,value
2018-07-19T00:01:02.770Z,76.48
2018-07-19T00:06:01.557Z,76.48
2018-07-19T00:16:01.645Z,76.07
2018-07-19T00:21:01.627Z,77.12
2018-07-19T00:31:01.735Z,76.98
2018-07-19T00:41:01.630Z,77.20
2018-07-19T00:56:01.592Z,77.36
2018-07-19T01:06:02.866Z,76.88
2018-07-19T01:11:01.621Z,76.76
2018-07-19T01:22:01.622Z,76.75
2018-07-19T01:32:01.661Z,76.85
2018-07-19T01:42:02.693Z,78.28
2018-07-19T01:52:01.334Z,77.36
2018-07-19T02:02:01.481Z,76.75
2018-07-19T02:17:01.555Z,76.43
2018-07-19T02:27:01.652Z,76.50
2018-07-19T02:32:03.134Z,77.60
2018-07-19T02:42:03.334Z,76.87
2018-07-19T02:52:01.534Z,76.65
2018-07-19T03:02:01.690Z,76.60
2018-07-19T03:12:01.491Z,77.48
2018-07-19T03:27:01.673Z,77.72
2018-07-19T03:42:01.465Z,78.01
2018-07-19T03:57:06.620Z,78.25
2018-07-19T04:07:01.582Z,79.28
2018-07-19T04:17:01.787Z,79.04
2018-07-19T04:27:01.528Z,80.09
2018-07-19T04:32:01.561Z,81.30
2018-07-19T04:42:01.575Z,82.06
2018-07-19T04:47:03.392Z,82.06
2018-07-19T04:52:01.671Z,83.08
2018-07-19T04:57:03.273Z,83.08
2018-07-19T05:02:01.850Z,83.19
2018-07-19T05:08:01.543Z,83.19
2018-07-19T05:13:01.505Z,82.21
2018-07-19T05:18:01.550Z,82.21
2018-07-19T05:23:01.498Z,83.42
2018-07-19T05:28:03.266Z,83.42
2018-07-19T05:33:01.653Z,83.05
2018-07-19T05:38:01.577Z,83.05
2018-07-19T05:43:01.557Z,81.90
2018-07-19T05:48:01.541Z,81.90
2018-07-19T05:53:03.284Z,79.70
2018-07-19T05:58:01.649Z,79.70
2018-07-19T06:03:03.349Z,77.47
2018-07-19T06:08:01.422Z,77.47
2018-07-19T06:13:02.661Z,75.61
2018-07-19T06:18:01.516Z,75.61
2018-07-19T06:23:01.725Z,73.65
2018-07-19T06:28:01.593Z,73.65
2018-07-19T06:33:01.473Z,71.93
2018-07-19T06:38:02.843Z,71.93
2018-07-19T06:43:01.926Z,71.20
2018-07-19T06:48:02.761Z,71.20
2018-07-19T06:53:01.804Z,71.27
2018-07-19T06:58:01.873Z,71.27
2018-07-19T07:03:02.711Z,69.62
2018-07-19T07:08:01.515Z,69.62
2018-07-19T07:13:02.844Z,68.25
2018-07-19T07:18:01.586Z,68.25
2018-07-19T07:23:01.743Z,67.94
2018-07-19T07:33:01.466Z,65.51
2018-07-19T07:38:02.727Z,65.51
2018-07-19T07:43:01.916Z,64.09
2018-07-19T07:48:01.612Z,64.09
2018-07-19T07:53:02.290Z,62.14
2018-07-19T08:03:01.482Z,60.43
2018-07-19T08:08:01.577Z,60.43
2018-07-19T08:13:02.726Z,60.83
2018-07-19T08:18:01.562Z,60.83
2018-07-19T08:23:01.532Z,58.04
2018-07-19T08:28:02.633Z,58.04
2018-07-19T08:33:01.500Z,56.46
2018-07-19T08:38:02.748Z,56.46
2018-07-19T08:43:01.668Z,56.00
2018-07-19T08:48:01.567Z,56.00
2018-07-19T08:53:01.842Z,52.39
2018-07-19T08:58:01.593Z,52.39
2018-07-19T09:03:02.347Z,51.87
2018-07-19T09:13:02.563Z,51.69
2018-07-19T09:18:01.580Z,51.69
2018-07-19T09:33:01.396Z,54.38
2018-07-19T09:38:01.560Z,54.38
2018-07-19T09:43:01.700Z,52.57
2018-07-19T09:48:01.501Z,52.57
2018-07-19T09:53:01.734Z,50.09
2018-07-19T09:58:02.594Z,50.09
2018-07-19T10:03:01.516Z,46.74
2018-07-19T10:08:02.708Z,46.74
2018-07-19T10:13:01.673Z,45.07
2018-07-19T10:23:03.210Z,48.17
2018-07-19T10:28:01.799Z,48.17
2018-07-19T10:33:01.624Z,41.34
2018-07-19T10:38:01.690Z,41.34
2018-07-19T10:43:01.983Z,42.25
2018-07-19T10:48:01.544Z,42.25
2018-07-19T10:53:01.739Z,42.32
2018-07-19T10:58:01.535Z,42.32
2018-07-19T11:03:01.548Z,42.58
2018-07-19T11:08:01.563Z,42.58
2018-07-19T11:13:01.597Z,42.40
2018-07-19T11:18:01.602Z,42.40
2018-07-19T11:23:01.671Z,41.28
2018-07-19T11:28:01.572Z,41.28
2018-07-19T11:33:01.635Z,37.12
2018-07-19T11:38:01.598Z,37.12
2018-07-19T11:43:01.606Z,37.09
2018-07-19T11:48:01.678Z,37.09
2018-07-19T11:53:01.686Z,37.57
2018-07-19T11:58:01.516Z,37.57
2018-07-19T12:03:01.547Z,35.17
2018-07-19T12:08:01.570Z,35.17
2018-07-19T12:13:01.653Z,34.55
2018-07-19T12:18:01.746Z,34.55
2018-07-19T12:23:01.597Z,34.28
2018-07-19T12:28:01.516Z,34.28
2018-07-19T12:33:01.504Z,37.60
2018-07-19T12:38:01.573Z,37.60
2018-07-19T12:43:01.843Z,38.94
2018-07-19T12:48:01.528Z,38.94
2018-07-19T12:53:01.954Z,39.36
2018-07-19T12:59:01.780Z,35.96
2018-07-19T13:04:01.539Z,35.96
2018-07-19T13:09:01.673Z,36.48
2018-07-19T13:14:01.674Z,36.48
2018-07-19T13:19:01.574Z,35.84
2018-07-19T13:29:01.682Z,35.19
2018-07-19T13:34:01.597Z,35.19
2018-07-19T13:39:02.005Z,36.99
2018-07-19T13:49:01.513Z,35.33
2018-07-19T14:04:01.600Z,34.56
2018-07-19T14:09:01.672Z,33.92
2018-07-19T14:14:01.512Z,33.92
2018-07-19T14:19:01.948Z,33.37
2018-07-19T14:24:02.128Z,33.37
2018-07-19T14:29:01.666Z,32.74
2018-07-19T14:34:01.589Z,32.74
2018-07-19T14:49:01.540Z,31.73
2018-07-19T15:04:01.404Z,31.48
2018-07-19T15:09:01.586Z,31.97
2018-07-19T15:19:01.464Z,32.47
2018-07-19T15:29:01.550Z,31.84
2018-07-19T15:39:01.608Z,31.90
2018-07-19T15:49:01.485Z,32.75
2018-07-19T16:04:01.403Z,33.18
2018-07-19T16:09:01.621Z,34.39
2018-07-19T16:14:01.530Z,34.39
2018-07-19T16:19:01.602Z,35.47
2018-07-19T16:24:01.552Z,35.47
2018-07-19T16:29:01.623Z,35.96
2018-07-19T16:34:01.932Z,35.96
2018-07-19T16:39:01.738Z,36.45
2018-07-19T16:44:01.741Z,36.45
2018-07-19T16:49:01.637Z,37.09
2018-07-19T16:54:01.623Z,37.09
2018-07-19T16:59:01.700Z,38.02
2018-07-19T17:04:01.706Z,38.02
2018-07-19T17:09:01.593Z,37.64
2018-07-19T17:14:01.670Z,37.64
2018-07-19T17:19:01.728Z,38.13
2018-07-19T17:24:01.659Z,38.13
2018-07-19T17:29:02.276Z,38.20
2018-07-19T17:34:01.645Z,38.20
2018-07-19T17:39:02.089Z,39.50
2018-07-19T17:44:01.872Z,39.50
2018-07-19T17:54:01.641Z,38.31
2018-07-19T17:59:01.614Z,41.11
2018-07-19T18:04:01.654Z,41.11
2018-07-19T18:09:01.647Z,41.79
2018-07-19T18:14:01.639Z,41.79
2018-07-19T18:19:01.650Z,43.06
2018-07-19T18:24:01.651Z,43.06
2018-07-19T18:29:01.671Z,45.11
2018-07-19T18:34:01.803Z,45.11
2018-07-19T18:39:01.703Z,45.42
2018-07-19T18:49:01.738Z,45.07
2018-07-19T18:54:01.895Z,45.07
2018-07-19T18:59:01.651Z,46.59
2018-07-19T19:04:01.683Z,46.59
2018-07-19T19:09:01.815Z,47.69
2018-07-19T19:15:01.681Z,47.69
2018-07-19T19:20:01.878Z,48.51
2018-07-19T19:25:01.674Z,48.51
2018-07-19T19:30:01.643Z,49.23
2018-07-19T19:35:01.681Z,49.23
2018-07-19T19:40:01.781Z,51.26
2018-07-19T19:45:02.111Z,51.26
2018-07-19T19:50:01.671Z,53.32
2018-07-19T19:55:01.683Z,53.32
2018-07-19T20:00:01.686Z,55.00
2018-07-19T20:05:01.755Z,55.00
2018-07-19T20:10:01.789Z,56.14
2018-07-19T20:15:01.719Z,56.14
2018-07-19T20:20:01.648Z,57.19
2018-07-19T20:25:01.634Z,57.19
2018-07-19T20:30:01.680Z,58.85
2018-07-19T20:35:01.676Z,58.85
2018-07-19T20:40:01.737Z,60.52
2018-07-19T20:45:01.677Z,60.52
2018-07-19T20:50:01.619Z,61.99
2018-07-19T20:55:01.647Z,61.99
2018-07-19T21:00:01.741Z,63.00
2018-07-19T21:05:01.706Z,63.00
2018-07-19T21:11:01.658Z,63.96
2018-07-19T21:21:01.526Z,65.36
2018-07-19T21:31:01.672Z,67.06
2018-07-19T21:36:01.505Z,67.06
2018-07-19T21:41:01.570Z,68.12
2018-07-19T21:46:01.525Z,68.12
2018-07-19T21:51:01.802Z,69.38
2018-07-19T21:56:01.684Z,69.38
2018-07-19T22:01:01.654Z,70.86
2018-07-19T22:06:01.524Z,70.86
2018-07-19T22:11:01.651Z,70.87
2018-07-19T22:16:01.790Z,70.87
2018-07-19T22:21:01.628Z,71.77
2018-07-19T22:31:01.573Z,71.91
2018-07-19T22:41:01.593Z,71.91
2018-07-19T22:51:01.677Z,72.42
2018-07-19T23:01:01.591Z,72.53
2018-07-19T23:11:01.565Z,73.12
2018-07-19T23:16:01.515Z,73.12
2018-07-19T23:21:01.639Z,73.98
2018-07-19T23:26:01.502Z,73.98
2018-07-19T23:31:01.472Z,73.90
2018-07-19T23:36:01.502Z,73.90
2018-07-19T23:41:01.563Z,73.70
2018-07-19T23:51:01.935Z,74.21
2018-07-19T23:56:01.528Z,74.21
